Boonton, New Jersey
Current Conditions -  °F | °C
As of 5:45 PM on Saturday 20 Dec 2014 (Local Time) from KMMU Reporting Station
Overcast Overcast  
Wind Chill: 32°   Ceiling: 3000
Heat Index: 32°   Visibility: 10mi
Dew Point: 23°   Wind: 3mph
Humidity: 69%   Direction: 320°NW
Pressure: 30.29"   Gusts: NA
Location:  40.9°N, 74.41°W
Report Text: KMMU 202245Z 32003KT 10SM OVC030 00/M05 A3029
Loading
Personal Weather Stations






























Interactive Weather Map New forecast layout! Learn more

10-Day Weather Forecast

Advertisements
Track Severe Weather on mobile